地図

経路データ

SID SEASON NUMBER BASIN SUBBASIN NAME ISO_TIME NATURE LAT LON WMO_WIND WMO_PRES WMO_AGENCY TRACK_TYPE DIST2LAND LANDFALL IFLAG USA_AGENCY USA_ATCF_ID USA_LAT USA_LON USA_RECORD USA_STATUS USA_WIND USA_PRES USA_SSHS USA_R34_NE USA_R34_SE USA_R34_SW USA_R34_NW USA_R50_NE USA_R50_SE USA_R50_SW USA_R50_NW USA_R64_NE USA_R64_SE USA_R64_SW USA_R64_NW USA_POCI USA_ROCI USA_RMW USA_EYE TOKYO_LAT TOKYO_LON TOKYO_GRADE TOKYO_WIND TOKYO_PRES TOKYO_R50_DIR TOKYO_R50_LONG TOKYO_R50_SHORT TOKYO_R30_DIR TOKYO_R30_LONG TOKYO_R30_SHORT TOKYO_LAND CMA_LAT CMA_LON CMA_CAT CMA_WIND CMA_PRES HKO_LAT HKO_LON HKO_CAT HKO_WIND HKO_PRES NEWDELHI_LAT NEWDELHI_LON NEWDELHI_GRADE NEWDELHI_WIND NEWDELHI_PRES NEWDELHI_CI NEWDELHI_DP NEWDELHI_POCI REUNION_LAT REUNION_LON REUNION_TYPE REUNION_WIND REUNION_PRES REUNION_TNUM REUNION_CI REUNION_RMW REUNION_R34_NE REUNION_R34_SE REUNION_R34_SW REUNION_R34_NW REUNION_R50_NE REUNION_R50_SE REUNION_R50_SW REUNION_R50_NW REUNION_R64_NE REUNION_R64_SE REUNION_R64_SW REUNION_R64_NW BOM_LAT BOM_LON BOM_TYPE BOM_WIND BOM_PRES BOM_TNUM BOM_CI BOM_RMW BOM_R34_NE BOM_R34_SE BOM_R34_SW BOM_R34_NW BOM_R50_NE BOM_R50_SE BOM_R50_SW BOM_R50_NW BOM_R64_NE BOM_R64_SE BOM_R64_SW BOM_R64_NW BOM_ROCI BOM_POCI BOM_EYE BOM_POS_METHOD BOM_PRES_METHOD NADI_LAT NADI_LON NADI_CAT NADI_WIND NADI_PRES WELLINGTON_LAT WELLINGTON_LON WELLINGTON_WIND WELLINGTON_PRES DS824_LAT DS824_LON DS824_STAGE DS824_WIND DS824_PRES TD9636_LAT TD9636_LON TD9636_STAGE TD9636_WIND TD9636_PRES TD9635_LAT TD9635_LON TD9635_WIND TD9635_PRES TD9635_ROCI NEUMANN_LAT NEUMANN_LON NEUMANN_CLASS NEUMANN_WIND NEUMANN_PRES MLC_LAT MLC_LON MLC_CLASS MLC_WIND MLC_PRES USA_GUST BOM_GUST BOM_GUST_PER REUNION_GUST REUNION_GUST_PER USA_SEAHGT USA_SEARAD_NE USA_SEARAD_SE USA_SEARAD_SW USA_SEARAD_NW STORM_SPEED STORM_DIR
1991062S09168 1991 11 SP MM NOT_NAMED 1991-03-03 06:00:00 TS -9.10000 168.100 main 648 558 O___________O_ jtwc_sh SH151991 -9.10000 168.100 15 -1 -9.10000 168.100 TC 15 17 185
1991062S09168 1991 11 SP MM NOT_NAMED 1991-03-03 09:00:00 TS -9.92761 168.033 main 558 469 P___________P_ SH151991 -9.92761 168.033 15 -1 -9.92761 168.033 TC 15 17 187
1991062S09168 1991 11 SP MM NOT_NAMED 1991-03-03 12:00:00 TS -10.8000 167.900 main 458 356 O___________O_ jtwc_sh SH151991 -10.8000 167.900 15 -1 -10.8000 167.900 TC 15 19 192
1991062S09168 1991 11 SP MM NOT_NAMED 1991-03-03 15:00:00 TS -11.7298 167.640 main 352 243 P___________P_ SH151991 -11.7298 167.640 15 -1 -11.7298 167.640 TC 15 19 201
1991062S09168 1991 11 SP MM NOT_NAMED 1991-03-03 18:00:00 TS -12.6000 167.200 main 243 156 O___________O_ jtwc_sh SH151991 -12.6000 167.200 15 -1 -12.6000 167.200 TC 15 19 213
1991062S09168 1991 11 SP MM NOT_NAMED 1991-03-03 21:00:00 TS -13.3023 166.582 main 156 119 P___________P_ SH151991 -13.3023 166.582 15 -1 -13.3023 166.582 TC 15 19 226
1991062S09168 1991 11 SP MM NOT_NAMED 1991-03-04 00:00:00 TS -13.9000 165.800 main 124 124 O___________O_ jtwc_sh SH151991 -13.9000 165.800 15 -1 -13.9000 165.800 TC 15 20 233
1991062S09168 1991 11 SP MM NOT_NAMED 1991-03-04 03:00:00 TS -14.5025 164.923 main 175 175 P___________P_ SH151991 -14.5025 164.923 15 -1 -14.5025 164.923 TC 15 21 238
1991062S09168 1991 11 SP MM NOT_NAMED 1991-03-04 06:00:00 TS -15.0000 164.000 main 269 269 O___________O_ jtwc_sh SH151991 -15.0000 164.000 15 -1 -15.0000 164.000 TC 15 19 244
1991062S09168 1991 11 SP MM NOT_NAMED 1991-03-04 09:00:00 TS -15.3371 163.142 main 369 369 P___________P_ SH151991 -15.3371 163.142 15 -1 -15.3371 163.142 TC 15 17 250
1991062S09168 1991 11 SP MM NOT_NAMED 1991-03-04 12:00:00 TS -15.6000 162.300 main 459 459 O___________O_ jtwc_sh SH151991 -15.6000 162.300 15 -1 -15.6000 162.300 TC 15 18 251
1991062S09168 1991 11 SP MM NOT_NAMED 1991-03-04 15:00:00 TS -15.9076 161.413 main 559 555 P___________P_ SH151991 -15.9076 161.413 17 -1 -15.9076 161.413 TC 17 17 250
1991062S09168 1991 11 SP MM NOT_NAMED 1991-03-04 18:00:00 TS -16.2000 160.600 main 580 580 O___________O_ jtwc_sh SH151991 -16.2000 160.600 20 -1 -16.2000 160.600 TC 20 15 248
1991062S09168 1991 11 SP EA NOT_NAMED 1991-03-04 21:00:00 TS -16.4645 159.962 main 598 598 P___________P_ SH151991 -16.4645 159.962 22 -1 -16.4645 159.962 TC 22 13 247
1991062S09168 1991 11 SP EA NOT_NAMED 1991-03-05 00:00:00 TS -16.7000 159.400 main 630 630 O___________O_ jtwc_sh SH151991 -16.7000 159.400 25 -1 -16.7000 159.400 TC 25 12 248
1991062S09168 1991 11 SP EA NOT_NAMED 1991-03-05 03:00:00 TS -16.9074 158.792 main 667 667 P___________P_ SH151991 -16.9074 158.792 27 -1 -16.9074 158.792 TC 27 12 251
1991062S09168 1991 11 SP EA NOT_NAMED 1991-03-05 06:00:00 TS -17.1000 158.200 main 707 707 O___________O_ jtwc_sh SH151991 -17.1000 158.200 30 -1 -17.1000 158.200 TC 30 12 250
1991062S09168 1991 11 SP EA NOT_NAMED 1991-03-05 09:00:00 TS -17.3073 157.635 main 752 752 P___________P_ SH151991 -17.3073 157.635 30 -1 -17.3073 157.635 TC 30 11 249
1991062S09168 1991 11 SP EA NOT_NAMED 1991-03-05 12:00:00 TS -17.5000 157.100 main 790 790 O___________O_ jtwc_sh SH151991 -17.5000 157.100 30 -1 -17.5000 157.100 TC 30 11 250
1991062S09168 1991 11 SP EA NOT_NAMED 1991-03-05 15:00:00 TS -17.6725 156.570 main 809 762 P___________P_ SH151991 -17.6725 156.570 30 -1 -17.6725 156.570 TC 30 10 253
1991062S09168 1991 11 SP EA NOT_NAMED 1991-03-05 18:00:00 TS -17.8000 156.100 main 762 724 O___________O_ jtwc_sh SH151991 -17.8000 156.100 30 -1 -17.8000 156.100 TC 30 8 257
1991062S09168 1991 11 SP EA NOT_NAMED 1991-03-05 21:00:00 TS -17.8648 155.720 main 724 702 P___________P_ SH151991 -17.8648 155.720 30 -1 -17.8648 155.720 TC 30 7 261
1991062S09168 1991 11 SP EA NOT_NAMED 1991-03-06 00:00:00 TS -17.9000 155.400 main 702 681 O___________O_ jtwc_sh SH151991 -17.9000 155.400 30 -1 -17.9000 155.400 TC 30 6 263
1991062S09168 1991 11 SP EA NOT_NAMED 1991-03-06 03:00:00 TS -17.9349 155.085 main 681 651 P___________P_ SH151991 -17.9349 155.085 30 -1 -17.9349 155.085 TC 30 6 260
1991062S09168 1991 11 SP EA NOT_NAMED 1991-03-06 06:00:00 TS -18.0000 154.800 main 651 623 O___________O_ jtwc_sh SH151991 -18.0000 154.800 30 -1 -18.0000 154.800 TC 30 6 252
1991062S09168 1991 11 SP EA NOT_NAMED 1991-03-06 09:00:00 TS -18.1125 154.527 main 623 592 P___________P_ SH151991 -18.1125 154.527 30 -1 -18.1125 154.527 TC 30 6 238
1991062S09168 1991 11 SP EA NOT_NAMED 1991-03-06 12:00:00 TS -18.3000 154.300 main 592 553 O___________O_ jtwc_sh SH151991 -18.3000 154.300 30 -1 -18.3000 154.300 TC 30 6 219
1991062S09168 1991 11 SP EA NOT_NAMED 1991-03-06 15:00:00 TS -18.5850 154.128 main 553 520 P___________P_ SH151991 -18.5850 154.128 30 -1 -18.5850 154.128 TC 30 7 205
1991062S09168 1991 11 SP EA NOT_NAMED 1991-03-06 18:00:00 TS -18.9000 154.000 main 520 496 O___________O_ jtwc_sh SH151991 -18.9000 154.000 30 -1 -18.9000 154.000 TC 30 6 203
1991062S09168 1991 11 SP EA NOT_NAMED 1991-03-06 21:00:00 TS -19.1425 153.885 main 496 464 P___________P_ SH151991 -19.1425 153.885 30 -1 -19.1425 153.885 TC 30 5 201
1991062S09168 1991 11 SP EA NOT_NAMED 1991-03-07 00:00:00 TS -19.4000 153.800 main 464 433 O___________O_ jtwc_sh SH151991 -19.4000 153.800 30 -1 -19.4000 153.800 TC 30 6 193
1991062S09168 1991 11 SP EA NOT_NAMED 1991-03-07 03:00:00 TS -19.7275 153.743 main 433 402 P___________P_ SH151991 -19.7275 153.743 27 -1 -19.7275 153.743 TC 27 7 188
1991062S09168 1991 11 SP EA NOT_NAMED 1991-03-07 06:00:00 TS -20.1000 153.700 main 402 O___________O_ jtwc_sh SH151991 -20.1000 153.700 25 -1 -20.1000 153.700 TC 25 8 187

デジタル台風データ・検索

IBTrACS Databaseについて

本データベースは、米国NOAAが公開する1842年以降の世界の熱帯低気圧のベストトラックデータアーカイブInternational Best Track Archive for Climate Stewardship (IBTrACS)を、ウェブで閲覧しやすい形式に変換したものです。

最終更新日:2021-11-26